Snow/Ice From: 17-12-2017 10:00 Until: 18-12-2017 06:00 warning for: Snow/Ice Level: Yellow info button

Although rather usual in this region, locally or potentially dangerous phenomena are expected. (such as local winds, summer thunderstorms, rising streams or high waves) Be aware and pay attention to the latest weather updates, especially if you carry out activities exposed to weather or close to a stream or shoreline. 


Meteo18 Weather Cam more information Meteo18 Weather Cam


Thunder radar more information blitzortung!


warning for Snow/Ice more information rain snow radar


Visit our other weather sites:

Template documentation
and downloads

And another site



Weather Underground History page Text

Daily Summary for May 30, 2017 Units:  Metric    English   Both
« Previous Day
Next Day »
Daily Weekly Monthly Yearly Custom
  High: Low: Average:
Temperature: 23.6 °C 16.2 °C 19.3 °C
Dew Point: 17.6 °C 14.1 °C 16 °C
Humidity: 96 % 63 % 82 %
Wind Speed: 16.1 km/h 0.0 km/h 3 km/h
Wind Gust: 19.3 km/h - -
Wind:- - WSW
Pressure: 1021.9 hPa 1016.5 hPa -
Precipitation: 5.3 mm    
Historical Graphs
 
 
Tabular Data for May 30, 2017
Time Temperature Dew Point Pressure Wind Wind Speed Wind Gust Humidity Rainfall Rate (Hourly)
00:02 19.3 °C 14.3 °C 1017.2 hPa Calm     73 % 0.0 mm
00:12 19.3 °C 14.5 °C 1017.2 hPa Calm     74 % 0.0 mm
00:17 19.3 °C 14.8 °C 1017.2 hPa WNW 1.6 km/h   75 % 0.0 mm
00:22 19.2 °C 14.7 °C 1016.8 hPa Calm     75 % 0.0 mm
00:32 19.2 °C 14.9 °C 1016.8 hPa Calm   3.2 km/h 76 % 0.0 mm
00:42 19.3 °C 15.0 °C 1017.2 hPa Calm   3.2 km/h 76 % 0.0 mm
00:52 19.2 °C 15.1 °C 1016.8 hPa Calm   3.2 km/h 77 % 0.0 mm
00:57 19.2 °C 15.1 °C 1017.2 hPa Calm   4.8 km/h 77 % 0.0 mm
01:02 19.1 °C 15.0 °C 1017.2 hPa Calm   6.4 km/h 77 % 0.0 mm
01:07 19.0 °C 15.1 °C 1016.8 hPa Calm   6.4 km/h 78 % 0.0 mm
01:12 18.9 °C 15.0 °C 1016.8 hPa Calm   6.4 km/h 78 % 0.0 mm
01:17 18.8 °C 14.9 °C 1016.8 hPa Calm   1.6 km/h 78 % 0.0 mm
01:22 18.8 °C 14.9 °C 1016.8 hPa Calm     78 % 0.0 mm
01:27 18.8 °C 15.1 °C 1016.8 hPa Calm     79 % 0.0 mm
01:32 18.6 °C 15.1 °C 1016.8 hPa WNW 1.6 km/h 1.6 km/h 80 % 0.0 mm
01:37 18.3 °C 15.0 °C 1016.8 hPa WNW 1.6 km/h 1.6 km/h 81 % 0.0 mm
01:42 18.1 °C 15.0 °C 1016.8 hPa West 1.6 km/h 4.8 km/h 82 % 0.0 mm
01:52 18.3 °C 15.2 °C 1016.8 hPa Calm   4.8 km/h 82 % 0.0 mm
01:57 18.3 °C 15.2 °C 1016.5 hPa Calm   4.8 km/h 82 % 0.0 mm
02:02 18.3 °C 15.0 °C 1016.5 hPa Calm   4.8 km/h 81 % 0.0 mm
02:07 18.2 °C 15.1 °C 1016.5 hPa Calm   3.2 km/h 82 % 0.0 mm
02:17 17.9 °C 15.0 °C 1016.5 hPa West 1.6 km/h 1.6 km/h 83 % 0.0 mm
02:22 18.1 °C 15.0 °C 1016.5 hPa Calm     82 % 0.0 mm
02:32 17.9 °C 15.0 °C 1016.5 hPa West 1.6 km/h 4.8 km/h 83 % 0.0 mm
02:42 18.1 °C 15.0 °C 1016.5 hPa Calm   4.8 km/h 82 % 0.0 mm
02:47 18.1 °C 15.2 °C 1016.5 hPa Calm   3.2 km/h 83 % 0.0 mm
02:52 17.9 °C 15.0 °C 1016.5 hPa Calm   1.6 km/h 83 % 0.0 mm
02:57 17.8 °C 15.1 °C 1016.5 hPa SE 1.6 km/h 1.6 km/h 84 % 0.0 mm
03:02 17.7 °C 15.0 °C 1016.5 hPa SE 1.6 km/h 3.2 km/h 84 % 0.0 mm
03:12 17.8 °C 15.2 °C 1016.5 hPa Calm   3.2 km/h 85 % 0.0 mm
03:17 17.8 °C 15.2 °C 1016.5 hPa SW 3.2 km/h 3.2 km/h 85 % 0.0 mm
03:22 17.7 °C 15.1 °C 1017.2 hPa SSW 4.8 km/h 4.8 km/h 85 % 0.0 mm
03:32 18.0 °C 15.3 °C 1016.8 hPa SW 4.8 km/h 11.3 km/h 84 % 0.0 mm
03:42 18.1 °C 15.5 °C 1016.5 hPa WNW 4.8 km/h 11.3 km/h 85 % 0.0 mm
03:47 17.9 °C 15.5 °C 1016.8 hPa WSW 4.8 km/h 9.7 km/h 86 % 0.0 mm
03:52 17.7 °C 15.5 °C 1016.8 hPa West 3.2 km/h 9.7 km/h 87 % 0.0 mm
03:57 17.5 °C 15.5 °C 1016.8 hPa WSW 6.4 km/h 9.7 km/h 88 % 0.0 mm
04:02 17.4 °C 15.6 °C 1016.8 hPa West 1.6 km/h 9.7 km/h 89 % 0.0 mm
04:07 17.4 °C 15.6 °C 1016.5 hPa West 1.6 km/h 8.0 km/h 89 % 0.3 mm
04:12 17.4 °C 15.6 °C 1016.5 hPa West 1.6 km/h 8.0 km/h 89 % 0.3 mm
04:17 17.3 °C 15.5 °C 1016.8 hPa NW 1.6 km/h 8.0 km/h 89 % 0.3 mm
04:22 17.3 °C 15.6 °C 1016.8 hPa West 3.2 km/h 8.0 km/h 90 % 0.3 mm
04:32 17.2 °C 15.7 °C 1016.8 hPa SW 1.6 km/h 9.7 km/h 91 % 0.3 mm
04:42 17.2 °C 15.7 °C 1016.8 hPa NW 4.8 km/h 8.0 km/h 91 % 0.3 mm
04:47 17.2 °C 15.7 °C 1016.8 hPa Calm   8.0 km/h 91 % 0.3 mm
04:52 17.1 °C 15.8 °C 1017.2 hPa SSW 3.2 km/h 8.0 km/h 92 % 0.3 mm
04:57 17.1 °C 15.8 °C 1016.8 hPa WNW 1.6 km/h 8.0 km/h 92 % 0.3 mm
05:02 17.0 °C 15.7 °C 1016.5 hPa WSW 1.6 km/h 6.4 km/h 92 % 1.3 mm
05:12 16.9 °C 15.8 °C 1016.5 hPa Calm   4.8 km/h 93 % 1.5 mm
05:17 16.9 °C 15.8 °C 1016.8 hPa Calm   4.8 km/h 93 % 1.5 mm
05:22 16.8 °C 15.7 °C 1016.8 hPa Calm   3.2 km/h 93 % 1.5 mm
05:32 16.8 °C 15.8 °C 1017.5 hPa Calm   3.2 km/h 94 % 1.8 mm
05:42 16.7 °C 15.7 °C 1017.5 hPa WSW 3.2 km/h 3.2 km/h 94 % 2.0 mm
05:52 16.5 °C 15.5 °C 1017.2 hPa South 1.6 km/h 4.8 km/h 94 % 2.3 mm
06:02 16.5 °C 15.5 °C 1017.2 hPa Calm   4.8 km/h 94 % 2.3 mm
06:12 16.4 °C 15.6 °C 1017.2 hPa Calm   3.2 km/h 95 % 2.3 mm
06:17 16.4 °C 15.4 °C 1017.2 hPa Calm   3.2 km/h 94 % 2.3 mm
06:22 16.3 °C 15.5 °C 1017.5 hPa SSE 3.2 km/h   95 % 2.8 mm
06:32 16.3 °C 15.5 °C 1017.2 hPa SW 1.6 km/h   95 % 2.8 mm
06:37 16.3 °C 15.5 °C 1017.2 hPa Calm   6.4 km/h 95 % 3.3 mm
06:42 16.2 °C 15.4 °C 1017.2 hPa Calm   6.4 km/h 95 % 3.3 mm
06:47 16.2 °C 15.4 °C 1017.2 hPa South 1.6 km/h 6.4 km/h 95 % 3.3 mm
06:52 16.2 °C 15.4 °C 1017.5 hPa SSW 1.6 km/h 3.2 km/h 95 % 2.0 mm
07:02 16.3 °C 15.7 °C 1017.5 hPa Calm   3.2 km/h 96 % 2.0 mm
07:12 16.3 °C 15.7 °C 1017.5 hPa Calm   3.2 km/h 96 % 1.3 mm
07:17 16.3 °C 15.7 °C 1017.5 hPa Calm   3.2 km/h 96 % 1.3 mm
07:22 16.3 °C 15.7 °C 1017.5 hPa Calm   3.2 km/h 96 % 0.5 mm
07:32 16.3 °C 15.7 °C 1017.5 hPa Calm   3.2 km/h 96 % 0.3 mm
07:42 16.3 °C 15.7 °C 1017.5 hPa SW 1.6 km/h 1.6 km/h 96 % 0.0 mm
07:52 16.4 °C 15.8 °C 1017.8 hPa WSW 3.2 km/h 3.2 km/h 96 % 0.0 mm
07:57 16.3 °C 15.7 °C 1017.8 hPa SW 3.2 km/h 3.2 km/h 96 % 0.0 mm
08:02 16.4 °C 15.8 °C 1017.8 hPa SW 6.4 km/h 9.7 km/h 96 % 0.0 mm
08:07 16.4 °C 15.8 °C 1018.2 hPa SSW 6.4 km/h 9.7 km/h 96 % 0.0 mm
08:12 16.5 °C 15.9 °C 1018.2 hPa SW 4.8 km/h 9.7 km/h 96 % 0.0 mm
08:17 16.5 °C 15.9 °C 1018.2 hPa Calm   9.7 km/h 96 % 0.0 mm
08:22 16.6 °C 16.0 °C 1017.8 hPa Calm   8.0 km/h 96 % 0.0 mm
08:27 16.6 °C 16.0 °C 1017.8 hPa SSW 1.6 km/h 8.0 km/h 96 % 0.0 mm
08:32 16.6 °C 16.0 °C 1018.2 hPa SW 3.2 km/h 6.4 km/h 96 % 0.0 mm
08:42 16.7 °C 16.1 °C 1018.5 hPa SW 1.6 km/h 6.4 km/h 96 % 0.0 mm
08:47 16.7 °C 16.1 °C 1018.5 hPa SSW 3.2 km/h 6.4 km/h 96 % 0.0 mm
08:52 16.7 °C 16.1 °C 1018.5 hPa WSW 3.2 km/h 6.4 km/h 96 % 0.0 mm
08:57 16.7 °C 16.1 °C 1018.5 hPa WSW 4.8 km/h 6.4 km/h 96 % 0.0 mm
09:02 16.7 °C 16.1 °C 1018.8 hPa SW 3.2 km/h 8.0 km/h 96 % 0.0 mm
09:12 16.8 °C 16.2 °C 1018.8 hPa SW 3.2 km/h 8.0 km/h 96 % 0.3 mm
09:17 16.9 °C 16.1 °C 1018.8 hPa SSW 1.6 km/h 8.0 km/h 95 % 0.3 mm
09:22 16.8 °C 16.0 °C 1018.8 hPa West 1.6 km/h 8.0 km/h 95 % 0.3 mm
09:32 16.9 °C 16.1 °C 1018.8 hPa Calm   6.4 km/h 95 % 0.3 mm
09:37 17.1 °C 16.3 °C 1018.8 hPa Calm   6.4 km/h 95 % 0.3 mm
09:42 17.3 °C 16.5 °C 1018.8 hPa Calm   6.4 km/h 95 % 0.3 mm
09:47 17.3 °C 16.3 °C 1018.8 hPa Calm   6.4 km/h 94 % 0.3 mm
09:52 17.5 °C 16.5 °C 1018.8 hPa WSW 6.4 km/h 6.4 km/h 94 % 0.3 mm
09:57 17.5 °C 16.4 °C 1018.8 hPa SW 4.8 km/h 4.8 km/h 93 % 0.3 mm
10:02 17.7 °C 16.6 °C 1018.8 hPa SW 6.4 km/h 9.7 km/h 93 % 0.3 mm
10:12 17.9 °C 16.8 °C 1018.8 hPa SSW 3.2 km/h 9.7 km/h 93 % 0.0 mm
10:17 18.1 °C 16.8 °C 1018.8 hPa South 4.8 km/h 9.7 km/h 92 % 0.0 mm
10:22 18.2 °C 16.9 °C 1018.8 hPa WSW 3.2 km/h 9.7 km/h 92 % 0.0 mm
10:32 18.6 °C 17.3 °C 1018.8 hPa SSW 1.6 km/h 8.0 km/h 92 % 0.0 mm
10:42 18.9 °C 16.9 °C 1018.8 hPa SW 4.8 km/h 8.0 km/h 88 % 0.0 mm
10:52 18.8 °C 16.9 °C 1018.8 hPa WSW 4.8 km/h 11.3 km/h 89 % 0.0 mm
10:57 18.9 °C 17.2 °C 1018.8 hPa West 1.6 km/h 11.3 km/h 90 % 0.0 mm
11:02 18.9 °C 16.9 °C 1019.2 hPa WSW 1.6 km/h 11.3 km/h 88 % 0.0 mm
11:07 19.1 °C 17.2 °C 1018.8 hPa WSW 1.6 km/h 11.3 km/h 89 % 0.0 mm
11:12 19.2 °C 17.0 °C 1018.8 hPa West 1.6 km/h 6.4 km/h 87 % 0.0 mm
11:22 19.2 °C 16.8 °C 1019.2 hPa SW 4.8 km/h 8.0 km/h 86 % 0.0 mm
11:32 19.3 °C 17.1 °C 1019.2 hPa SW 1.6 km/h 11.3 km/h 87 % 0.0 mm
11:42 19.2 °C 16.6 °C 1019.2 hPa SW 4.8 km/h 11.3 km/h 85 % 0.0 mm
11:47 19.2 °C 16.4 °C 1019.2 hPa SW 6.4 km/h 11.3 km/h 84 % 0.0 mm
11:52 19.3 °C 16.9 °C 1019.2 hPa SW 1.6 km/h 12.9 km/h 86 % 0.0 mm
11:57 19.3 °C 16.9 °C 1019.2 hPa SW 4.8 km/h 12.9 km/h 86 % 0.0 mm
12:02 19.2 °C 16.6 °C 1019.2 hPa South 3.2 km/h 11.3 km/h 85 % 0.0 mm
12:12 19.2 °C 16.8 °C 1019.2 hPa SW 6.4 km/h 9.7 km/h 86 % 0.0 mm
12:17 19.3 °C 17.1 °C 1019.2 hPa WSW 1.6 km/h 9.7 km/h 87 % 0.0 mm
12:22 19.6 °C 16.8 °C 1019.2 hPa WNW 6.4 km/h 9.7 km/h 84 % 0.0 mm
12:32 20.3 °C 17.1 °C 1019.2 hPa WNW 6.4 km/h 9.7 km/h 82 % 0.0 mm
12:37 20.6 °C 17.4 °C 1019.5 hPa SSW 4.8 km/h 9.7 km/h 82 % 0.0 mm
12:42 20.6 °C 16.6 °C 1019.5 hPa West 11.3 km/h 11.3 km/h 78 % 0.0 mm
12:47 20.6 °C 16.6 °C 1019.5 hPa WSW 4.8 km/h 9.7 km/h 78 % 0.0 mm
12:52 20.7 °C 17.3 °C 1019.5 hPa WNW 4.8 km/h 11.3 km/h 81 % 0.0 mm
13:02 20.4 °C 17.0 °C 1019.5 hPa WNW 9.7 km/h 11.3 km/h 81 % 0.0 mm
13:12 20.0 °C 17.0 °C 1019.5 hPa WSW 3.2 km/h 14.5 km/h 83 % 0.0 mm
13:17 19.9 °C 16.7 °C 1019.5 hPa West 6.4 km/h 14.5 km/h 82 % 0.0 mm
13:22 20.0 °C 16.4 °C 1019.5 hPa West 6.4 km/h 12.9 km/h 80 % 0.0 mm
13:32 20.2 °C 16.8 °C 1019.5 hPa WNW 8.0 km/h 14.5 km/h 81 % 0.0 mm
13:42 20.6 °C 16.8 °C 1019.2 hPa WNW 4.8 km/h 12.9 km/h 79 % 0.0 mm
13:52 20.8 °C 16.4 °C 1019.2 hPa SW 3.2 km/h 12.9 km/h 76 % 0.0 mm
14:02 21.5 °C 16.5 °C 1019.2 hPa West 6.4 km/h 12.9 km/h 73 % 0.0 mm
14:07 21.6 °C 17.0 °C 1019.2 hPa WNW 1.6 km/h 12.9 km/h 75 % 0.0 mm
14:12 21.8 °C 16.1 °C 1019.2 hPa SW 6.4 km/h 11.3 km/h 70 % 0.0 mm
14:17 22.0 °C 16.7 °C 1019.2 hPa SSW 3.2 km/h 11.3 km/h 72 % 0.0 mm
14:22 22.3 °C 16.8 °C 1019.2 hPa West 8.0 km/h 11.3 km/h 71 % 0.0 mm
14:27 22.2 °C 17.1 °C 1018.8 hPa West 1.6 km/h 12.9 km/h 73 % 0.0 mm
14:32 22.2 °C 17.1 °C 1018.8 hPa SW 4.8 km/h 12.9 km/h 73 % 0.0 mm
14:42 22.3 °C 17.0 °C 1018.8 hPa West 9.7 km/h 12.9 km/h 72 % 0.0 mm
14:47 22.4 °C 16.7 °C 1018.8 hPa West 4.8 km/h 14.5 km/h 70 % 0.0 mm
14:52 22.4 °C 16.4 °C 1018.8 hPa South 4.8 km/h 14.5 km/h 69 % 0.0 mm
15:02 22.8 °C 16.6 °C 1018.8 hPa WNW 6.4 km/h 16.1 km/h 68 % 0.0 mm
15:07 22.9 °C 16.9 °C 1018.8 hPa WNW 4.8 km/h 16.1 km/h 69 % 0.0 mm
15:17 22.9 °C 17.4 °C 1018.8 hPa West 8.0 km/h 17.7 km/h 71 % 0.0 mm
15:22 22.9 °C 17.6 °C 1018.8 hPa WSW 8.0 km/h 17.7 km/h 72 % 0.0 mm
15:32 22.8 °C 16.8 °C 1018.8 hPa WSW 8.0 km/h 14.5 km/h 69 % 0.0 mm
15:37 22.6 °C 16.6 °C 1018.8 hPa SW 4.8 km/h 19.3 km/h 69 % 0.0 mm
15:42 22.5 °C 16.3 °C 1018.8 hPa West 4.8 km/h 19.3 km/h 68 % 0.0 mm
15:47 22.5 °C 17.0 °C 1018.8 hPa WNW 11.3 km/h 19.3 km/h 71 % 0.0 mm
15:52 22.3 °C 17.0 °C 1018.8 hPa NNW 4.8 km/h 19.3 km/h 72 % 0.0 mm
15:57 22.2 °C 16.9 °C 1018.8 hPa SSW 6.4 km/h 12.9 km/h 72 % 0.0 mm
16:02 22.3 °C 16.8 °C 1018.8 hPa NNW 3.2 km/h 14.5 km/h 71 % 0.0 mm
16:12 22.7 °C 17.4 °C 1018.8 hPa WSW 4.8 km/h 14.5 km/h 72 % 0.0 mm
16:17 22.6 °C 17.1 °C 1018.8 hPa Calm   11.3 km/h 71 % 0.0 mm
16:22 22.8 °C 16.8 °C 1018.8 hPa WNW 3.2 km/h 11.3 km/h 69 % 0.0 mm
16:27 22.6 °C 16.4 °C 1018.8 hPa WNW 6.4 km/h 11.3 km/h 68 % 0.0 mm
16:32 22.4 °C 16.7 °C 1018.8 hPa West 4.8 km/h 9.7 km/h 70 % 0.0 mm
16:42 22.4 °C 16.4 °C 1018.8 hPa WNW 1.6 km/h 9.7 km/h 69 % 0.0 mm
16:47 22.6 °C 16.6 °C 1018.8 hPa NW 4.8 km/h 8.0 km/h 69 % 0.0 mm
16:52 22.8 °C 16.8 °C 1018.8 hPa Calm   8.0 km/h 69 % 0.0 mm
16:57 23.4 °C 16.7 °C 1018.5 hPa WSW 9.7 km/h 9.7 km/h 66 % 0.0 mm
17:02 23.2 °C 15.8 °C 1018.5 hPa West 12.9 km/h 12.9 km/h 63 % 0.0 mm
17:12 23.6 °C 16.4 °C 1018.8 hPa West 3.2 km/h 14.5 km/h 64 % 0.0 mm
17:17 23.2 °C 16.5 °C 1018.8 hPa NW 6.4 km/h 14.5 km/h 66 % 0.0 mm
17:22 22.8 °C 16.6 °C 1018.8 hPa WNW 4.8 km/h 12.9 km/h 68 % 0.0 mm
17:32 22.6 °C 16.8 °C 1018.8 hPa West 3.2 km/h 11.3 km/h 70 % 0.0 mm
17:42 22.9 °C 16.9 °C 1018.8 hPa NNW 6.4 km/h 11.3 km/h 69 % 0.0 mm
17:52 22.8 °C 16.6 °C 1018.8 hPa Calm   11.3 km/h 68 % 0.0 mm
17:57 22.6 °C 16.4 °C 1019.2 hPa WNW 1.6 km/h 9.7 km/h 68 % 0.0 mm
18:02 22.4 °C 16.7 °C 1019.2 hPa WNW 1.6 km/h 9.7 km/h 70 % 0.0 mm
18:07 22.5 °C 16.8 °C 1019.2 hPa West 1.6 km/h 9.7 km/h 70 % 0.0 mm
18:12 22.4 °C 16.2 °C 1019.2 hPa NNW 6.4 km/h 9.7 km/h 68 % 0.0 mm
18:17 22.4 °C 16.7 °C 1019.2 hPa WNW 11.3 km/h 11.3 km/h 70 % 0.0 mm
18:22 22.4 °C 16.4 °C 1019.2 hPa West 6.4 km/h 11.3 km/h 69 % 0.0 mm
18:32 22.9 °C 16.7 °C 1019.2 hPa NW 6.4 km/h 14.5 km/h 68 % 0.0 mm
18:37 23.1 °C 16.6 °C 1019.2 hPa SW 3.2 km/h 12.9 km/h 67 % 0.0 mm
18:42 23.2 °C 16.7 °C 1019.2 hPa NW 3.2 km/h 12.9 km/h 67 % 0.0 mm
18:52 23.1 °C 16.4 °C 1019.2 hPa NW 9.7 km/h 12.9 km/h 66 % 0.0 mm
18:57 22.9 °C 15.7 °C 1019.2 hPa NNW 16.1 km/h 16.1 km/h 64 % 0.0 mm
19:02 22.8 °C 15.9 °C 1019.2 hPa North 6.4 km/h 16.1 km/h 65 % 0.0 mm
19:12 22.7 °C 16.0 °C 1019.2 hPa WNW 6.4 km/h 17.7 km/h 66 % 0.0 mm
19:17 22.5 °C 16.1 °C 1019.2 hPa NNW 8.0 km/h 17.7 km/h 67 % 0.0 mm
19:22 22.3 °C 16.1 °C 1019.2 hPa North 6.4 km/h 16.1 km/h 68 % 0.0 mm
19:32 21.8 °C 15.6 °C 1019.2 hPa NNW 3.2 km/h 14.5 km/h 68 % 0.0 mm
19:42 21.4 °C 15.7 °C 1019.5 hPa NW 3.2 km/h 16.1 km/h 70 % 0.0 mm
19:47 21.3 °C 15.8 °C 1019.5 hPa NNW 3.2 km/h 14.5 km/h 71 % 0.0 mm
19:52 21.3 °C 16.0 °C 1019.5 hPa North 4.8 km/h 14.5 km/h 72 % 0.0 mm
20:02 21.3 °C 16.5 °C 1019.5 hPa North 3.2 km/h 11.3 km/h 74 % 0.0 mm
20:12 21.2 °C 16.2 °C 1019.5 hPa NW 4.8 km/h 9.7 km/h 73 % 0.0 mm
20:17 21.1 °C 16.3 °C 1019.9 hPa NNE 1.6 km/h 8.0 km/h 74 % 0.0 mm
20:22 21.0 °C 16.4 °C 1019.9 hPa NNW 1.6 km/h 8.0 km/h 75 % 0.0 mm
20:27 21.0 °C 16.4 °C 1019.9 hPa North 3.2 km/h 8.0 km/h 75 % 0.0 mm
20:42 20.9 °C 16.3 °C 1019.9 hPa North 1.6 km/h 6.4 km/h 75 % 0.0 mm
20:47 20.8 °C 16.2 °C 1019.9 hPa Calm   6.4 km/h 75 % 0.0 mm
20:52 20.7 °C 16.1 °C 1019.9 hPa NW 3.2 km/h 6.4 km/h 75 % 0.0 mm
20:57 20.7 °C 16.3 °C 1019.9 hPa West 1.6 km/h 4.8 km/h 76 % 0.0 mm
21:02 20.6 °C 16.2 °C 1019.9 hPa Calm   4.8 km/h 76 % 0.0 mm
21:12 20.2 °C 16.2 °C 1020.2 hPa Calm   4.8 km/h 78 % 0.0 mm
21:17 20.0 °C 16.0 °C 1020.2 hPa Calm   4.8 km/h 78 % 0.0 mm
21:22 19.8 °C 15.9 °C 1020.2 hPa Calm   3.2 km/h 78 % 0.0 mm
21:27 19.7 °C 16.0 °C 1020.2 hPa Calm   3.2 km/h 79 % 0.0 mm
21:32 19.6 °C 15.9 °C 1020.5 hPa Calm   6.4 km/h 79 % 0.0 mm
21:37 19.4 °C 15.9 °C 1020.5 hPa Calm   6.4 km/h 80 % 0.0 mm
21:47 19.2 °C 15.9 °C 1020.5 hPa NNE 1.6 km/h 1.6 km/h 81 % 0.0 mm
21:52 18.9 °C 15.8 °C 1020.5 hPa Calm   1.6 km/h 82 % 0.0 mm
21:57 18.9 °C 15.8 °C 1020.9 hPa Calm   3.2 km/h 82 % 0.0 mm
22:02 18.8 °C 15.7 °C 1020.9 hPa Calm   3.2 km/h 82 % 0.0 mm
22:12 18.6 °C 15.7 °C 1020.9 hPa Calm   3.2 km/h 83 % 0.0 mm
22:17 18.6 °C 15.7 °C 1021.2 hPa Calm   1.6 km/h 83 % 0.0 mm
22:22 18.4 °C 15.6 °C 1021.2 hPa Calm     84 % 0.0 mm
22:32 18.3 °C 15.5 °C 1021.2 hPa NW 1.6 km/h 6.4 km/h 84 % 0.0 mm
22:42 18.1 °C 15.4 °C 1021.6 hPa Calm   6.4 km/h 84 % 0.0 mm
22:47 18.0 °C 15.3 °C 1021.6 hPa NNW 1.6 km/h 6.4 km/h 84 % 0.0 mm
22:52 17.9 °C 15.2 °C 1021.6 hPa WNW 1.6 km/h 6.4 km/h 84 % 0.0 mm
22:57 17.9 °C 15.0 °C 1021.6 hPa NNW 1.6 km/h 4.8 km/h 83 % 0.0 mm
23:02 17.9 °C 15.0 °C 1021.6 hPa NE 6.4 km/h 6.4 km/h 83 % 0.0 mm
23:12 17.8 °C 14.9 °C 1021.6 hPa Calm   9.7 km/h 83 % 0.0 mm
23:17 17.7 °C 14.8 °C 1021.6 hPa Calm   9.7 km/h 83 % 0.0 mm
23:22 17.7 °C 14.8 °C 1021.6 hPa NNW 1.6 km/h 9.7 km/h 83 % 0.0 mm
23:32 17.6 °C 14.7 °C 1021.6 hPa North 1.6 km/h 9.7 km/h 83 % 0.0 mm
23:42 17.7 °C 14.6 °C 1021.9 hPa NNW 3.2 km/h 8.0 km/h 82 % 0.0 mm
23:47 17.6 °C 14.5 °C 1021.9 hPa NNW 3.2 km/h 4.8 km/h 82 % 0.0 mm
23:52 17.5 °C 14.4 °C 1021.6 hPa NNW 1.6 km/h 4.8 km/h 82 % 0.0 mm
23:57 17.4 °C 14.1 °C 1021.6 hPa NW 1.6 km/h 4.8 km/h 81 % 0.0 mm
Meteo18
Compliments of Weather Underground - 4 mb

Script developed by  Jim McMurry - jmcmurry@mwt.net Adapted for the template by  Wim van der Kuil - Leuven-Template.eu

You find our weather info also at:

European Weather Network

Weather Underground

Equipment we use:

Weather-station
Davis Vue

Weather-program
Meteohub

Weather-server
Raspberry PI 2 B+

Provider
1 and 1

Davis Vue

Meteohub

Raspberry PI 2 B+

1 and 1